Tiempo atmosférico en la estación meteorológica de Alfaro, La Rioja (285 m.)

Fecha
DESCASC
Temp. máxima en grados centígrados (hora)
DESCASC
Temp. mínima en grados centígrados (hora)
DESCASC
Temp. media en grados centígrados
DESCASC
Racha de viento máxima en m/sg (hora)
DESCASC
Velocidad máxima media en intervalos de 10 minutos(hora)
DESCASC
Precipitaciones diarias en mm
DESCASC
Precipitaciones de 00:00 a 06:00 en mm
DESCASC
Precipitaciones de 06:00 a 12:00 en mm
DESCASC
Precipitaciones de 12:00 a 18:00 en mm
DESCASC
Precipitaciones de 18:00 a 24:00 en mm
DESCASC
19-10-2017 18.9 (16:50) 9.7 (23:59) 14.3 6.67 (13:30) 3.61 (16:00) 1.6 1.2 0.4 0 0
18-10-2017 19.2 (00:00) 12.4 (23:20) 15.8 10.28 (11:40) 6.94 (13:30) 8 0 1.6 0.2 6.2
17-10-2017 23.5 (16:00) 11.4 (04:50) 17.4 12.22 (15:00) 8.61 (15:00) 0 0 0 0 0
16-10-2017 25.6 (16:40) 12.1 (23:59) 18.9 9.44 (12:40) 6.11 (12:40) 0 0 0 0 0
15-10-2017 24.4 (17:10) 13.1 (00:00) 18.8 9.44 (14:50) 5.83 (13:50) 0 0 0 0 0
14-10-2017 24.8 (17:00) 9.4 (00:00) 17.1 9.17 (13:40) 5.83 (13:40) 0 0 0 0 0
13-10-2017 26.6 (17:30) 6.8 (00:00) 16.7 6.67 (16:10) 3.33 (16:10) 0 0 0 0 0
12-10-2017 25.4 (17:00) 5.1 (00:00) 15.2 5.28 (15:20) 2.78 (15:50) 0 0 0 0 0
11-10-2017 25.2 (17:40) 3.8 (00:00) 14.5 4.17 (14:40) 2.5 (13:10) 0 0 0 0 0
10-10-2017 26 (16:20) 4.1 (00:00) 15 3.89 (14:20) 2.78 (22:30) 0 0 0 0 0
09-10-2017 26.5 (17:40) 9.2 (00:00) 17.8 7.5 (03:40) 4.44 (11:40) 0 0 0 0 0
08-10-2017 26.5 (16:30) 2.9 (00:00) 14.7 8.06 (16:10) 4.72 (15:20) 0 0 0 0 0
07-10-2017 22.5 (16:50) 8.2 (00:00) 15.3 10.56 (07:30) 6.67 (04:30) 0 0 0 0 0
06-10-2017 22.8 (14:50) 13.4 (00:00) 18.1 13.61 (17:20) 8.33 (17:10) 0 0 0 0 0
05-10-2017 27.5 (15:40) 9.1 (00:00) 18.3 11.94 (19:00) 7.22 (23:59) 0 0 0 0 0
04-10-2017 27.5 (17:30) 10.2 (00:00) 18.8 6.67 (13:20) 3.89 (16:10) 0 0 0 0 0
03-10-2017 27.4 (15:40) 14 (00:00) 20.7 10 (17:20) 6.39 (16:40) 0 0 0 0 0
02-10-2017 26.9 (16:40) 14.5 (00:00) 20.7 11.67 (15:10) 6.67 (12:50) 0 0 0 0 0
01-10-2017 22.5 (16:40) 13.7 (00:00) 18.1 11.94 (16:00) 6.67 (16:00) 0 0 0 0 0
30-09-2017 21.9 (15:20) 14.4 (00:00) 18.1 7.5 (16:20) 5 (16:10) 0 0 0 0 0
29-09-2017 27.4 (17:50) 10.5 (00:00) 18.9 6.11 (13:20) 4.17 (10:30) 0 0 0 0 0
28-09-2017 27.8 (17:10) 10.8 (00:00) 19.3 7.5 (11:50) 4.17 (12:00) 0 0 0 0 0
27-09-2017 26.7 (17:20) 6.8 (00:00) 16.8 8.61 (11:30) 5.83 (11:20) 0 0 0 0 0
26-09-2017 24.2 (17:00) 12.1 (00:00) 18.2 6.67 (12:10) 3.89 (09:50) 0 0 0 0 0
25-09-2017 23.6 (15:30) 15 (00:00) 19.3 12.5 (17:30) 7.5 (17:30) 0 0 0 0 0
24-09-2017 28.5 (18:20) 9.5 (00:00) 19 5 (13:40) 3.06 (22:50) 0 0 0 0 0
23-09-2017 25.5 (16:50) 10.4 (00:00) 17.9 8.33 (12:50) 5.28 (12:40) 0 0 0 0 0
22-09-2017 20.6 (17:20) 12.4 (00:00) 16.5 6.39 (01:20) 3.33 (18:10) 0.2 0 0 0 0.2
21-09-2017 26.8 (17:40) 4.7 (00:00) 15.7 8.33 (21:00) 5.28 (21:40) 0 0 0 0 0
20-09-2017 26.1 (18:00) 4.7 (00:00) 15.4 5.28 (00:20) 3.61 (01:00) 0.2 0 0.2 0 0

Gráficas

Temp. máximas Temp. mínimas Temp. medias Precipitaciones Rachas de viento máximas Velocidades máximas media en intervalos de 10 minutos

Datos horarios

Fecha y hora oficial Temperatura (ºC) Velocidad del viento (km/h) Dirección del viento Racha (km/h) Dirección de racha Precipitación (mm) Presión (hPa) Tendencia (hPa) Humedad (%)
2017-10-19 23:00:00 10.4 4 Este 8 Sur 0 -- -- 92
2017-10-19 22:00:00 11.2 3 Noroeste 9 Noroeste 0 -- -- 87
2017-10-19 21:00:00 12.3 8 Noroeste 12 Oeste 0 -- -- 85
2017-10-19 20:00:00 14.2 5 Noroeste 10 Noroeste 0 -- -- 79
2017-10-19 19:00:00 16.5 6 Noroeste 18 Noroeste 0 -- -- 67
2017-10-19 18:00:00 18.3 10 Noroeste 16 Norte 0 -- -- 56
2017-10-19 17:00:00 18.9 8 Norte 19 Norte 0 -- -- 53
2017-10-19 16:00:00 18.3 13 Norte 21 Noroeste 0 -- -- 60
2017-10-19 15:00:00 18.2 8 Noroeste 19 Norte 0 -- -- 61
2017-10-19 14:00:00 16.8 12 Norte 24 Noroeste 0 -- -- 68
2017-10-19 13:00:00 15.7 11 Noroeste 19 Noroeste 0 -- -- 75
2017-10-19 12:00:00 14.2 7 Noroeste 13 Noroeste 0 -- -- 89
2017-10-19 11:00:00 13.1 8 Oeste 13 Oeste 0 -- -- 93
2017-10-19 10:00:00 11.5 4 Noroeste 9 Noroeste 0 -- -- 97
2017-10-19 09:00:00 11.3 5 Noroeste 9 Noroeste 0.4 -- -- 96
2017-10-19 08:00:00 11.3 0 Calma 5 Noroeste 0 -- -- 97
2017-10-19 07:00:00 11.5 0 Calma 4 Oeste 0 -- -- 97
2017-10-19 06:00:00 11.5 2 Oeste 9 Noroeste 0.4 -- -- 97
2017-10-19 05:00:00 11.4 0 Calma 4 Norte 0 -- -- 96
2017-10-19 04:00:00 11.4 2 Norte 7 Norte 0 -- -- 94
2017-10-19 03:00:00 11.7 2 Norte 6 Norte 0 -- -- 95
2017-10-19 02:00:00 11.8 0 Calma 10 Noroeste 0 -- -- 95
2017-10-19 01:00:00 11.8 6 Noroeste 16 Noroeste 0.8 -- -- 95
2017-10-19 00:00:00 12.4 0 Calma 4 Noroeste 1.2 -- -- 95
2017-10-18 23:00:00 12.5 4 Oeste 14 Oeste 1.4 -- -- 95
2017-10-18 22:00:00 13 6 Noroeste 18 Oeste 1.2 -- -- 95
2017-10-18 21:00:00 13.7 7 Noroeste 10 Oeste 1.2 -- -- 94
2017-10-18 20:00:00 14 2 Noroeste 9 Norte 1 -- -- 91
2017-10-18 19:00:00 14.6 8 Noroeste 15 Norte 0.2 -- -- 87
2017-10-18 18:00:00 15.3 5 Norte 21 Norte 0.2 -- -- 83
2017-10-18 17:00:00 16.2 12 Norte 26 Norte 0 -- -- 75
2017-10-18 16:00:00 17.3 10 Noroeste 23 Noroeste 0 -- -- 73
2017-10-18 15:00:00 18.8 13 Sudoeste 33 Sudoeste 0 -- -- 65
2017-10-18 14:00:00 18.3 23 Sudoeste 35 Sudoeste 0 -- -- 71
2017-10-18 13:00:00 17.4 22 Sur 34 Sur 0 -- -- 76
2017-10-18 12:00:00 16.8 19 Sudeste 37 Sudeste 0.2 -- -- 95
2017-10-18 11:00:00 16.1 23 Sudeste 36 Sudeste 0.4 -- -- 96
2017-10-18 10:00:00 15.8 18 Sudeste 33 Sudeste 1 -- -- 95
2017-10-18 09:00:00 16.1 20 Sudeste 33 Sudeste 0 -- -- 91
2017-10-18 08:00:00 15.8 15 Sudeste 27 Sudeste 0 -- -- 91
2017-10-18 07:00:00 15.6 11 Sudeste 35 Sudeste 0 -- -- 91
2017-10-18 06:00:00 15.5 9 Sudeste 16 Sudeste 0 -- -- 92
2017-10-18 05:00:00 15.8 3 Nordeste 18 Sudeste 0 -- -- 90
2017-10-18 04:00:00 16.2 12 Este 19 Sudeste 0 -- -- 87
2017-10-18 03:00:00 16.4 11 Este 25 Este 0 -- -- 86
2017-10-18 02:00:00 17.5 15 Sudeste 22 Sudeste 0 -- -- 78
2017-10-18 01:00:00 18.4 12 Sudeste 29 Sudeste 0 -- -- 76
2017-10-18 00:00:00 19.2 17 Sudeste 29 Sudeste 0 -- -- 69
2017-10-17 23:00:00 19.1 10 Sudeste 18 Sudeste 0 -- -- 62
2017-10-17 22:00:00 20.2 8 Sudeste 21 Sur 0 -- -- 54
2017-10-17 21:00:00 20.7 13 Sur 19 Sur 0 -- -- 49
2017-10-17 20:00:00 21.3 10 Sudeste 42 Sudeste 0 -- -- 45
2017-10-17 19:00:00 21.7 20 Sudeste 32 Sudeste 0 -- -- 45
2017-10-17 18:00:00 22 24 Sudeste 41 Sudeste 0 -- -- 42
2017-10-17 17:00:00 22.7 26 Sudeste 41 Sur 0 -- -- 41
2017-10-17 16:00:00 23.5 23 Sudeste 41 Sur 0 -- -- 42
2017-10-17 15:00:00 22.1 31 Sudeste 44 Sudeste 0 -- -- 48
2017-10-17 14:00:00 21 24 Sudeste 40 Sudeste 0 -- -- 59
2017-10-17 13:00:00 20.2 21 Sudeste 35 Sudeste 0 -- -- 69
2017-10-17 12:00:00 18.8 24 Sudeste 40 Sudeste 0 -- -- 72
2017-10-17 11:00:00 17.1 16 Sur 32 Sudeste 0 -- -- 80
2017-10-17 10:00:00 15.6 18 Sudeste 27 Sudeste 0 -- -- 90
2017-10-17 09:00:00 13.8 4 Este 8 Nordeste 0 -- -- 95
2017-10-17 08:00:00 14.1 3 Este 14 Sudeste 0 -- -- 95
2017-10-17 07:00:00 13.4 8 Sudeste 13 Sudeste 0 -- -- 96
2017-10-17 06:00:00 12.6 8 Sur 13 Sudeste 0 -- -- 96
2017-10-17 05:00:00 11.7 10 Sudeste 13 Sudeste 0 -- -- 94
2017-10-17 04:00:00 12 6 Sur 12 Sudeste 0 -- -- 92
2017-10-17 03:00:00 12.3 4 Este 11 Sudeste 0 -- -- 88
2017-10-17 02:00:00 12.5 9 Sudeste 12 Sur 0 -- -- 90
2017-10-17 01:00:00 12.4 12 Sudoeste 15 Sur 0 -- -- 84
2017-10-17 00:00:00 12.1 6 Sudeste 8 Sudeste 0 -- -- 83
2017-10-16 23:00:00 13.1 6 Sudeste 11 Sudeste 0 -- -- 78
2017-10-16 22:00:00 14.2 5 Sudoeste 9 Sudeste 0 -- -- 72
2017-10-16 21:00:00 16.2 6 Sudeste 11 Sur 0 -- -- 72
2017-10-16 20:00:00 19.6 11 Sur 12 Sur 0 -- -- 62
2017-10-16 19:00:00 23.1 7 Sur 22 Sudeste 0 -- -- 56
2017-10-16 18:00:00 25.1 14 Sudeste 25 Sudeste 0 -- -- 50
2017-10-16 17:00:00 25.5 16 Sudeste 27 Sur 0 -- -- 47
2017-10-16 16:00:00 25.4 16 Sudeste 27 Sudeste 0 -- -- 50
2017-10-16 15:00:00 24.2 17 Sudeste 29 Sudeste 0 -- -- 56
2017-10-16 14:00:00 22.8 15 Sudeste 31 Sudeste 0 -- -- 62
2017-10-16 13:00:00 20.2 21 Sudeste 34 Sudeste 0 -- -- 73
2017-10-16 12:00:00 18.6 22 Sudeste 33 Sudeste 0 -- -- 78
2017-10-16 11:00:00 17.7 16 Sudeste 25 Sudeste 0 -- -- 85
2017-10-16 10:00:00 17.1 14 Sudeste 28 Sudeste 0 -- -- 88
2017-10-16 09:00:00 16.4 10 Sudeste 18 Este 0 -- -- 92
2017-10-16 08:00:00 16 8 Este 20 Sudeste 0 -- -- 93
2017-10-16 07:00:00 16.7 10 Sudeste 23 Sudeste 0 -- -- 90
2017-10-16 06:00:00 16.1 15 Sudeste 22 Sudeste 0 -- -- 95
2017-10-16 05:00:00 15.5 10 Este 14 Este 0 -- -- 96
2017-10-16 04:00:00 14.1 5 Sudeste 9 Sudeste 0 -- -- 92
2017-10-16 03:00:00 15.1 5 Este 10 Sudeste 0 -- -- 92
2017-10-16 02:00:00 16.1 6 Este 19 Sudeste 0 -- -- 88
2017-10-16 01:00:00 17.2 14 Sudeste 20 Sudeste 0 -- -- 88
2017-10-16 00:00:00 15.5 11 Sur 14 Sur 0 -- -- 90
2017-10-15 23:00:00 14.8 4 Sur 11 Sur 0 -- -- 78
2017-10-15 22:00:00 15.8 8 Sur 10 Sur 0 -- -- 82
2017-10-15 21:00:00 17.4 5 Sur 9 Nordeste 0 -- -- 75
2017-10-15 20:00:00 20 6 Sudeste 17 Sudeste 0 -- -- 68
2017-10-15 19:00:00 22.6 15 Sudeste 23 Sudeste 0 -- -- 62
2017-10-15 18:00:00 23.9 16 Sudeste 27 Sudeste 0 -- -- 60
2017-10-15 17:00:00 24.2 16 Sudeste 28 Sudeste 0 -- -- 61
2017-10-15 16:00:00 23.6 17 Sudeste 30 Sudeste 0 -- -- 62
2017-10-15 15:00:00 23.3 19 Este 34 Este 0 -- -- 64
2017-10-15 14:00:00 23 19 Sudeste 30 Sudeste 0 -- -- 63
2017-10-15 13:00:00 22.3 19 Sudeste 28 Sudeste 0 -- -- 66
2017-10-15 12:00:00 20.6 19 Sudeste 26 Sudeste 0 -- -- 78
2017-10-15 11:00:00 18.9 12 Sudeste 17 Sudeste 0 -- -- 84
2017-10-15 10:00:00 17.3 3 Sur 8 Sudoeste 0 -- -- 90
2017-10-15 09:00:00 16.9 5 Sudoeste 11 Sudeste 0 -- -- 90
2017-10-15 08:00:00 17 6 Sudeste 17 Sudeste 0 -- -- 90
2017-10-15 07:00:00 17.3 11 Sudeste 20 Sur 0 -- -- 90
2017-10-15 06:00:00 16.4 10 Sudeste 17 Sudeste 0 -- -- 96
2017-10-15 05:00:00 15 5 Este 9 Sur 0 -- -- 96
2017-10-15 04:00:00 13.5 8 Sur 10 Sur 0 -- -- 95
2017-10-15 03:00:00 13.9 4 Sudeste 9 Sudeste 0 -- -- 95
2017-10-15 02:00:00 14.1 6 Este 11 Sudeste 0 -- -- 95
2017-10-15 01:00:00 14.5 7 Este 10 Sur 0 -- -- 94
2017-10-15 00:00:00 14.1 8 Sur 9 Sur 0 -- -- 91
2017-10-14 23:00:00 14.1 4 Sudoeste 6 Sudeste 0 -- -- 80
2017-10-14 22:00:00 15.6 2 Sur 6 Sudoeste 0 -- -- 78
2017-10-14 21:00:00 17.3 0 Calma 4 Nordeste 0 -- -- 70
2017-10-14 20:00:00 20.9 0 Calma 15 Sur 0 -- -- 64
2017-10-14 19:00:00 23.1 11 Sur 26 Sudeste 0 -- -- 61
2017-10-14 18:00:00 24.3 17 Sudeste 28 Sudeste 0 -- -- 60
2017-10-14 17:00:00 24.8 19 Sudeste 29 Sudeste 0 -- -- 59
2017-10-14 16:00:00 24.5 19 Sudeste 31 Sudeste 0 -- -- 61
2017-10-14 15:00:00 22.9 19 Sur 31 Sudeste 0 -- -- 65
2017-10-14 14:00:00 21.3 19 Sudeste 33 Sudeste 0 -- -- 72
2017-10-14 13:00:00 20.3 13 Sudeste 21 Sudeste 0 -- -- 76
2017-10-14 12:00:00 18.7 9 Sudeste 14 Sudeste 0 -- -- 84
2017-10-14 11:00:00 17.1 3 Sudeste 6 Sudeste 0 -- -- 85
2017-10-14 10:00:00 15.8 2 Este 5 Sur 0 -- -- 85
2017-10-14 09:00:00 14.7 3 Sur 6 Sur 0 -- -- 90
2017-10-14 08:00:00 13.9 0 Calma 4 Nordeste 0 -- -- 93
2017-10-14 07:00:00 13.1 0 Calma 8 Nordeste 0 -- -- 95
2017-10-14 06:00:00 10 0 Calma -- -- 0 -- -- 91
2017-10-14 05:00:00 9.8 0 Calma 5 Sudoeste 0 -- -- 81
2017-10-14 04:00:00 10.8 0 Calma 5 Sudeste 0 -- -- 91
2017-10-14 03:00:00 10.8 4 Sur 5 Sudoeste 0 -- -- 83
2017-10-14 02:00:00 11.4 3 Sur 8 Sur 0 -- -- 82
2017-10-14 01:00:00 12.3 4 Sur 8 Sur 0 -- -- 79
2017-10-14 00:00:00 12.4 7 Sudoeste 8 Sudoeste 0 -- -- 79
2017-10-13 23:00:00 13.8 3 Sur 6 Sudoeste 0 -- -- 75
2017-10-13 22:00:00 15.5 3 Sur 5 Sur 0 -- -- 72
2017-10-13 21:00:00 17.2 3 Sur 8 Sudoeste 0 -- -- 67
2017-10-13 20:00:00 21 3 Sudoeste 8 Sur 0 -- -- 57
2017-10-13 19:00:00 24.8 6 Sur 13 Sur 0 -- -- 52
2017-10-13 18:00:00 26.3 8 Sur 16 Sur 0 -- -- 45
2017-10-13 17:00:00 26.5 7 Sudeste 24 Sur 0 -- -- 47
2017-10-13 16:00:00 25.9 10 Sudeste 20 Este 0 -- -- 51
2017-10-13 15:00:00 24.2 10 Sudeste 18 Sudeste 0 -- -- 61
2017-10-13 14:00:00 22.7 11 Sudeste 17 Sur 0 -- -- 66
2017-10-13 13:00:00 21.4 7 Sudeste 18 Sur 0 -- -- 70
2017-10-13 12:00:00 18.8 3 Este 7 Nordeste 0 -- -- 67
2017-10-13 11:00:00 15.7 3 Nordeste 6 Nordeste 0 -- -- 72
2017-10-13 10:00:00 11.8 0 Calma 3 Sudoeste 0 -- -- 84
2017-10-13 09:00:00 7 3 Sudoeste 5 Sudoeste 0 -- -- 87
2017-10-13 08:00:00 6.9 0 Calma 5 Sudoeste 0 -- -- 87
2017-10-13 07:00:00 7 4 Sudoeste 5 Sudoeste 0 -- -- 84
2017-10-13 06:00:00 7.7 0 Calma 3 Noroeste 0 -- -- 87
2017-10-13 05:00:00 7.9 0 Calma 4 Sudoeste 0 -- -- 85
2017-10-13 04:00:00 8.6 3 Oeste 6 Sudoeste 0 -- -- 86
2017-10-13 03:00:00 9.3 0 Calma 6 Sudoeste 0 -- -- 82
2017-10-13 02:00:00 9.5 5 Sudoeste 6 Sudoeste 0 -- -- 74
2017-10-13 01:00:00 10.4 5 Sudoeste 8 Sudoeste 0 -- -- 75
2017-10-13 00:00:00 11.8 3 Sudeste 5 Sudeste 0 -- -- 80
2017-10-12 23:00:00 12.3 4 Sur 7 Sudeste 0 -- -- 76
2017-10-12 22:00:00 14.1 3 Sur 7 Sudoeste 0 -- -- 71
2017-10-12 21:00:00 15.6 4 Sur 10 Sudoeste 0 -- -- 62
2017-10-12 20:00:00 19.6 2 Sur 8 Sur 0 -- -- 55
2017-10-12 19:00:00 23.8 6 Sur 13 Sur 0 -- -- 44
2017-10-12 18:00:00 25.2 9 Sur 16 Sudeste 0 -- -- 44
2017-10-12 17:00:00 25.4 9 Sudeste 16 Sudeste 0 -- -- 50
2017-10-12 16:00:00 25.1 8 Sudeste 19 Sudeste 0 -- -- 47
2017-10-12 15:00:00 24.1 8 Sudeste 18 Sudeste 0 -- -- 46
2017-10-12 14:00:00 21.4 7 Este 14 Este 0 -- -- 53
2017-10-12 13:00:00 19.7 4 Este 9 Este 0 -- -- 60
2017-10-12 12:00:00 17.3 4 Norte 13 Noroeste 0 -- -- 68
2017-10-12 11:00:00 14.5 8 Norte 12 Norte 0 -- -- 74
2017-10-12 10:00:00 11 0 Calma 0 Calma 0 -- -- 84
2017-10-12 09:00:00 5.9 0 Calma 6 Oeste 0 -- -- 92
2017-10-12 08:00:00 5.2 4 Sudoeste 8 Sudoeste 0 -- -- 85
2017-10-12 07:00:00 6.1 3 Sudoeste 5 Sur 0 -- -- 85
2017-10-12 06:00:00 6.8 3 Sur 6 Sur 0 -- -- 90
2017-10-12 05:00:00 6.5 4 Sudoeste 6 Sudoeste 0 -- -- 84
2017-10-12 04:00:00 7.2 0 Calma 6 Sur 0 -- -- 86
2017-10-12 03:00:00 7.7 4 Sudoeste 6 Sudoeste 0 -- -- 84
2017-10-12 02:00:00 8.4 3 Noroeste 5 Noroeste 0 -- -- 80
2017-10-12 01:00:00 9.2 3 Oeste 6 Oeste 0 -- -- 82
2017-10-12 00:00:00 10.1 0 Calma 6 Sudoeste 0 -- -- 81
2017-10-11 23:00:00 11.4 3 Sudoeste 7 Sudoeste 0 -- -- 76
2017-10-11 22:00:00 13.1 3 Sudeste 6 Sudeste 0 -- -- 77
2017-10-11 21:00:00 15 4 Sur 10 Oeste 0 -- -- 70
2017-10-11 20:00:00 19.1 3 Oeste 6 Oeste 0 -- -- 57
2017-10-11 19:00:00 23.7 0 Calma 4 Noroeste 0 -- -- 54
2017-10-11 18:00:00 24.6 0 Calma 6 Oeste 0 -- -- 50
2017-10-11 17:00:00 24 3 Norte 13 Este 0 -- -- 51
2017-10-11 16:00:00 23.6 7 Nordeste 15 Sudeste 0 -- -- 52
2017-10-11 15:00:00 22.5 5 Este 15 Sudeste 0 -- -- 57
2017-10-11 14:00:00 21.4 6 Sudeste 15 Sudeste 0 -- -- 60
2017-10-11 13:00:00 19.3 5 Este 14 Sudeste 0 -- -- 70
2017-10-11 12:00:00 16.3 7 Sudeste 14 Sudeste 0 -- -- 74
2017-10-11 11:00:00 12.5 5 Nordeste 7 Este 0 -- -- 73
2017-10-11 10:00:00 9.9 3 Nordeste 5 Nordeste 0 -- -- 79
2017-10-11 09:00:00 6.8 0 Calma 6 Sudoeste 0 -- -- 90
2017-10-11 08:00:00 4.1 3 Sudoeste 4 Sudoeste 0 -- -- 88
2017-10-11 07:00:00 3.9 4 Sur 5 Sur 0 -- -- 85
2017-10-11 06:00:00 4.3 0 Calma 4 Oeste 0 -- -- 84
2017-10-11 05:00:00 5 0 Calma 4 Sudoeste 0 -- -- 84
2017-10-11 04:00:00 5.4 4 Sudoeste 5 Sudoeste 0 -- -- 77
2017-10-11 03:00:00 6.1 0 Calma 3 Nordeste 0 -- -- 79
2017-10-11 02:00:00 7.1 2 Sudoeste 8 Sudoeste 0 -- -- 74
2017-10-11 01:00:00 7.9 2 Sur 4 Sur 0 -- -- 68
2017-10-11 00:00:00 9.9 0 Calma 8 Sudeste 0 -- -- 65
2017-10-10 23:00:00 11.5 6 Sudeste 12 Sur 0 -- -- 64
2017-10-10 22:00:00 12.3 6 Sur 9 Sur 0 -- -- 61
2017-10-10 21:00:00 14.8 6 Sudoeste 9 Sudoeste 0 -- -- 51
2017-10-10 20:00:00 19.9 5 Sur 9 Sur 0 -- -- 44
2017-10-10 19:00:00 25.6 0 Calma 5 Sudeste 0 -- -- 34
2017-10-10 18:00:00 25.8 2 Sudeste 10 Sudeste 0 -- -- 27
2017-10-10 17:00:00 25.8 0 Calma 12 Este 0 -- -- 28
2017-10-10 16:00:00 25.2 3 Este 11 Este 0 -- -- 33
2017-10-10 15:00:00 24.2 3 Sudeste 14 Este 0 -- -- 34
2017-10-10 14:00:00 22.4 5 Este 12 Este 0 -- -- 38
2017-10-10 13:00:00 20.1 4 Norte 13 Norte 0 -- -- 42
2017-10-10 12:00:00 18.1 4 Noroeste 10 Nordeste 0 -- -- 44
2017-10-10 11:00:00 14.8 6 Nordeste 10 Nordeste 0 -- -- 62
2017-10-10 10:00:00 11.4 0 Calma 4 Sur 0 -- -- 72
2017-10-10 09:00:00 5.4 2 Sur 5 Sur 0 -- -- 91
2017-10-10 08:00:00 4.4 4 Sudoeste 6 Noroeste 0 -- -- 83
2017-10-10 07:00:00 5.4 3 Sur 5 Sur 0 -- -- 87
2017-10-10 06:00:00 6.1 0 Calma 6 Sudoeste 0 -- -- 87
2017-10-10 05:00:00 6.7 3 Sudoeste 7 Oeste 0 -- -- 82
2017-10-10 04:00:00 6.9 5 Sudoeste 6 Sudoeste 0 -- -- 77
2017-10-10 03:00:00 8.4 3 Sudoeste 9 Noroeste 0 -- -- 77
2017-10-10 02:00:00 10.2 7 Oeste 10 Oeste 0 -- -- 75
2017-10-10 01:00:00 12.1 3 Oeste 10 Oeste 0 -- -- 74
2017-10-10 00:00:00 12.9 8 Oeste 13 Oeste 0 -- -- 66
2017-10-09 23:00:00 15.2 6 Noroeste 15 Noroeste 0 -- -- 61
2017-10-09 22:00:00 16.1 11 Noroeste 17 Noroeste 0 -- -- 59
2017-10-09 21:00:00 18.1 7 Noroeste 14 Norte 0 -- -- 51
2017-10-09 20:00:00 20.3 4 Nordeste 12 Norte 0 -- -- 43
2017-10-09 19:00:00 24.5 5 Nordeste 11 Nordeste 0 -- -- 34
2017-10-09 18:00:00 26.1 3 Nordeste 13 Oeste 0 -- -- 25
2017-10-09 17:00:00 26.1 7 Norte 18 Noroeste 0 -- -- 25
2017-10-09 16:00:00 25.9 8 Norte 18 Norte 0 -- -- 25
2017-10-09 15:00:00 24.9 10 Norte 19 Noroeste 0 -- -- 25
2017-10-09 14:00:00 23.4 12 Norte 23 Norte 0 -- -- 26
2017-10-09 13:00:00 21.9 12 Norte 21 Noroeste 0 -- -- 30
2017-10-09 12:00:00 18.8 15 Norte 27 Norte 0 -- -- 38
2017-10-09 11:00:00 15.2 14 Norte 19 Norte 0 -- -- 48
2017-10-09 10:00:00 12.5 13 Noroeste 22 Noroeste 0 -- -- 58
2017-10-09 09:00:00 10 10 Noroeste 22 Norte 0 -- -- 69
2017-10-09 08:00:00 9.3 9 Noroeste 19 Noroeste 0 -- -- 72
2017-10-09 07:00:00 10.2 11 Noroeste 21 Noroeste 0 -- -- 70
2017-10-09 06:00:00 10.6 11 Noroeste 22 Noroeste 0 -- -- 71
2017-10-09 05:00:00 10.7 6 Noroeste 17 Noroeste 0 -- -- 70
2017-10-09 04:00:00 11.7 14 Noroeste 27 Noroeste 0 -- -- 65
2017-10-09 03:00:00 12.3 9 Noroeste 24 Noroeste 0 -- -- 59
2017-10-09 02:00:00 12.6 12 Noroeste 22 Noroeste 0 -- -- 57
2017-10-09 01:00:00 12.3 9 Noroeste 17 Oeste 0 -- -- 56
2017-10-09 00:00:00 14.1 9 Noroeste 19 Noroeste 0 -- -- 50
2017-10-08 23:00:00 16 12 Noroeste 19 Noroeste 0 -- -- 47
2017-10-08 22:00:00 16.7 10 Noroeste 22 Noroeste 0 -- -- 47
2017-10-08 21:00:00 17.7 11 Noroeste 21 Noroeste 0 -- -- 47
2017-10-08 20:00:00 19.4 8 Noroeste 22 Norte 0 -- -- 42
2017-10-08 19:00:00 22.4 11 Norte 26 Norte 0 -- -- 35
2017-10-08 18:00:00 24.5 14 Norte 27 Norte 0 -- -- 29
2017-10-08 17:00:00 26.3 15 Noroeste 29 Noroeste 0 -- -- 19
2017-10-08 16:00:00 26 17 Noroeste 28 Noroeste 0 -- -- 17
2017-10-08 15:00:00 25.1 15 Noroeste 26 Noroeste 0 -- -- 19
2017-10-08 14:00:00 23.9 14 Noroeste 25 Norte 0 -- -- 16
2017-10-08 13:00:00 21.2 12 Noroeste 18 Noroeste 0 -- -- 24
2017-10-08 12:00:00 17.3 9 Noroeste 19 Oeste 0 -- -- 37
2017-10-08 11:00:00 13.3 12 Norte 19 Noroeste 0 -- -- 52
2017-10-08 10:00:00 10.3 5 Noroeste 13 Norte 0 -- -- 68
2017-10-08 09:00:00 4 4 Sudoeste 8 Oeste 0 -- -- 90
2017-10-08 08:00:00 3.3 4 Sudoeste 5 Sudoeste 0 -- -- 83
2017-10-08 07:00:00 4 4 Sudoeste 7 Oeste 0 -- -- 84
2017-10-08 06:00:00 4.2 4 Sudoeste 5 Oeste 0 -- -- 84
2017-10-08 05:00:00 4.6 3 Sudoeste 6 Sudoeste 0 -- -- 82
2017-10-08 04:00:00 5.3 3 Sudoeste 6 Sudoeste 0 -- -- 82
2017-10-08 03:00:00 5.7 2 Sur 4 Sur 0 -- -- 80
2017-10-08 02:00:00 6.6 2 Oeste 8 Oeste 0 -- -- 78
2017-10-08 01:00:00 7.1 3 Oeste 7 Oeste 0 -- -- 76
2017-10-08 00:00:00 8.2 4 Sudoeste 6 Sudoeste 0 -- -- 71
2017-10-07 23:00:00 10 3 Sudeste 8 Sur 0 -- -- 72
2017-10-07 22:00:00 11.3 9 Sur 11 Sur 0 -- -- 66
2017-10-07 21:00:00 13.3 5 Sudoeste 8 Sudoeste 0 -- -- 54
2017-10-07 20:00:00 18.4 0 Calma -- -- 0 -- -- 45
2017-10-07 19:00:00 22.3 0 Calma 9 Nordeste 0 -- -- 44
2017-10-07 18:00:00 22 5 Nordeste 10 Nordeste 0 -- -- 38
2017-10-07 17:00:00 22.5 5 Este 12 Nordeste 0 -- -- 36
2017-10-07 16:00:00 21.7 6 Nordeste 16 Noroeste 0 -- -- 36
2017-10-07 15:00:00 20.8 6 Norte 18 Noroeste 0 -- -- 39
2017-10-07 14:00:00 19.6 8 Norte 20 Noroeste 0 -- -- 44
2017-10-07 13:00:00 18.1 10 Noroeste 26 Noroeste 0 -- -- 47
2017-10-07 12:00:00 16.4 16 Noroeste 32 Noroeste 0 -- -- 50
2017-10-07 11:00:00 14.3 18 Noroeste 30 Noroeste 0 -- -- 63
2017-10-07 10:00:00 12.2 14 Norte 25 Noroeste 0 -- -- 73
2017-10-07 09:00:00 10.3 17 Noroeste 26 Noroeste 0 -- -- 79
2017-10-07 08:00:00 10.4 19 Noroeste 38 Noroeste 0 -- -- 78
2017-10-07 07:00:00 10.3 15 Noroeste 29 Noroeste 0 -- -- 80
2017-10-07 06:00:00 10.6 14 Noroeste 32 Noroeste 0 -- -- 79
2017-10-07 05:00:00 10.9 17 Norte 37 Norte 0 -- -- 77
2017-10-07 04:00:00 11.5 18 Noroeste 31 Noroeste 0 -- -- 77
2017-10-07 03:00:00 11.7 22 Noroeste 34 Noroeste 0 -- -- 75
2017-10-07 02:00:00 11.9 13 Noroeste 28 Noroeste 0 -- -- 76
2017-10-07 01:00:00 12.3 12 Noroeste 26 Norte 0 -- -- 73
2017-10-07 00:00:00 13.5 19 Noroeste 41 Noroeste 0 -- -- 69
2017-10-06 23:00:00 14.1 19 Noroeste 38 Norte 0 -- -- 65
2017-10-06 22:00:00 14.7 13 Noroeste 37 Norte 0 -- -- 65
2017-10-06 21:00:00 15.6 21 Norte 37 Noroeste 0 -- -- 61
2017-10-06 20:00:00 17 19 Noroeste 37 Norte 0 -- -- 58
2017-10-06 19:00:00 18.8 22 Norte 42 Norte 0 -- -- 51
2017-10-06 18:00:00 20.5 26 Norte 49 Norte 0 -- -- 49
2017-10-06 17:00:00 21.8 23 Norte 42 Norte 0 -- -- 51
2017-10-06 16:00:00 22 24 Noroeste 46 Noroeste 0 -- -- 53
2017-10-06 15:00:00 22.7 25 Noroeste 45 Noroeste 0 -- -- 52
2017-10-06 14:00:00 21.9 27 Noroeste 46 Noroeste 0 -- -- 55
2017-10-06 13:00:00 20.9 28 Noroeste 45 Noroeste 0 -- -- 56
2017-10-06 12:00:00 19.8 29 Noroeste 45 Noroeste 0 -- -- 59
2017-10-06 11:00:00 18.7 25 Noroeste 40 Noroeste 0 -- -- 62
2017-10-06 10:00:00 17.5 26 Noroeste 40 Noroeste 0 -- -- 66
2017-10-06 09:00:00 14.6 21 Noroeste 35 Norte 0 -- -- 79
2017-10-06 08:00:00 14 25 Norte 41 Norte 0 -- -- 81
2017-10-06 07:00:00 13.6 14 Norte 26 Noroeste 0 -- -- 84
2017-10-06 06:00:00 13.9 17 Noroeste 32 Noroeste 0 -- -- 84
2017-10-06 05:00:00 14 13 Norte 20 Norte 0 -- -- 85
2017-10-06 04:00:00 14.5 8 Norte 28 Noroeste 0 -- -- 83
2017-10-06 03:00:00 15.8 11 Noroeste 28 Noroeste 0 -- -- 78
2017-10-06 02:00:00 16.2 17 Noroeste 30 Noroeste 0 -- -- 77
2017-10-06 01:00:00 16.4 22 Noroeste 35 Norte 0 -- -- 77
2017-10-06 00:00:00 17.2 26 Noroeste 36 Noroeste 0 -- -- 73
2017-10-05 23:00:00 17.8 21 Noroeste 34 Noroeste 0 -- -- 69
2017-10-05 22:00:00 18.4 15 Noroeste 28 Noroeste 0 -- -- 67
2017-10-05 21:00:00 19.3 15 Noroeste 30 Noroeste 0 -- -- 63
2017-10-05 20:00:00 20.2 15 Norte 36 Noroeste 0 -- -- 60
2017-10-05 19:00:00 21.6 22 Norte 43 Norte 0 -- -- 62
2017-10-05 18:00:00 23.4 23 Norte 35 Norte 0 -- -- 58
2017-10-05 17:00:00 25.7 19 Norte 34 Norte 0 -- -- 53
2017-10-05 16:00:00 27.4 14 Norte 28 Nordeste 0 -- -- 48
2017-10-05 15:00:00 26.5 10 Norte 23 Noroeste 0 -- -- 51
2017-10-05 14:00:00 24.7 6 Norte 17 Norte 0 -- -- 58
2017-10-05 13:00:00 23 7 Norte 15 Norte 0 -- -- 64
2017-10-05 12:00:00 20.9 6 Nordeste 12 Nordeste 0 -- -- 69
2017-10-05 11:00:00 18.5 5 Norte 13 Norte 0 -- -- 76
2017-10-05 10:00:00 15.7 7 Noroeste 15 Noroeste 0 -- -- 84
2017-10-05 09:00:00 10.4 3 Sudoeste 7 Sudoeste 0 -- -- 95
2017-10-05 08:00:00 9.2 2 Sudoeste 5 Sudoeste 0 -- -- 92
2017-10-05 07:00:00 9.7 0 Calma 5 Sur 0 -- -- 92
2017-10-05 06:00:00 10 0 Calma 4 Sudoeste 0 -- -- 89
2017-10-05 05:00:00 10.5 2 Sudoeste 5 Noroeste 0 -- -- 87
2017-10-05 04:00:00 11.3 3 Noroeste 4 Noroeste 0 -- -- 87
2017-10-05 03:00:00 11.9 4 Sudoeste 8 Este 0 -- -- 82
2017-10-05 02:00:00 12.8 4 Sur 6 Sur 0 -- -- 83
2017-10-05 01:00:00 13.6 0 Calma 6 Sudoeste 0 -- -- 83
2017-10-05 00:00:00 14.6 4 Sudoeste 6 Sur 0 -- -- 79
2017-10-04 23:00:00 16.1 4 Sudoeste 6 Sur 0 -- -- 76
2017-10-04 22:00:00 17.3 3 Sudoeste 8 Sudoeste 0 -- -- 74
2017-10-04 21:00:00 19.9 0 Calma 4 Nordeste 0 -- -- 63
2017-10-04 20:00:00 22.9 2 Nordeste 8 Sur 0 -- -- 64
2017-10-04 19:00:00 26.1 6 Sur 18 Sudeste 0 -- -- 50
2017-10-04 18:00:00 27 12 Sur 20 Sur 0 -- -- 45
2017-10-04 17:00:00 27.1 12 Sudeste 23 Sudeste 0 -- -- 48
2017-10-04 16:00:00 27.1 9 Sudeste 24 Sudeste 0 -- -- 48
2017-10-04 15:00:00 26.1 12 Sudeste 21 Sudeste 0 -- -- 52
2017-10-04 14:00:00 25 10 Sudeste 24 Sudeste 0 -- -- 55
2017-10-04 13:00:00 23.1 7 Sudeste 16 Este 0 -- -- 60
2017-10-04 12:00:00 20.8 6 Este 13 Este 0 -- -- 65
2017-10-04 11:00:00 17.9 6 Este 13 Este 0 -- -- 78
2017-10-04 10:00:00 14.7 4 Nordeste 6 Nordeste 0 -- -- 88
2017-10-04 09:00:00 11.5 0 Calma 4 Sur 0 -- -- 96
2017-10-04 08:00:00 10.5 5 Sudeste 8 Sudeste 0 -- -- 95
2017-10-04 07:00:00 10.2 6 Sudoeste 8 Sudoeste 0 -- -- 91
2017-10-04 06:00:00 11 2 Sudoeste 3 Sudoeste 0 -- -- 88
2017-10-04 05:00:00 12.7 2 Oeste 8 Norte 0 -- -- 89
2017-10-04 04:00:00 13.6 4 Nordeste 16 Noroeste 0 -- -- 87
2017-10-04 03:00:00 14.9 8 Noroeste 18 Noroeste 0 -- -- 84
2017-10-04 02:00:00 15 9 Noroeste 14 Noroeste 0 -- -- 84
2017-10-04 01:00:00 15.3 2 Norte 13 Oeste 0 -- -- 79
2017-10-04 00:00:00 17.7 11 Oeste 25 Noroeste 0 -- -- 74
2017-10-03 23:00:00 18.7 13 Noroeste 25 Noroeste 0 -- -- 73
2017-10-03 22:00:00 19.5 14 Noroeste 25 Noroeste 0 -- -- 71
2017-10-03 21:00:00 20.2 12 Noroeste 23 Norte 0 -- -- 65
2017-10-03 20:00:00 21.4 11 Norte 31 Norte 0 -- -- 60
2017-10-03 19:00:00 23.3 15 Norte 32 Norte 0 -- -- 52
2017-10-03 18:00:00 24.5 17 Norte 36 Norte 0 -- -- 50
2017-10-03 17:00:00 25.6 21 Norte 35 Norte 0 -- -- 46
2017-10-03 16:00:00 27.2 19 Noroeste 33 Noroeste 0 -- -- 43
2017-10-03 15:00:00 26.4 16 Noroeste 32 Norte 0 -- -- 45
2017-10-03 14:00:00 25.7 17 Noroeste 31 Noroeste 0 -- -- 49
2017-10-03 13:00:00 24.8 15 Noroeste 27 Noroeste 0 -- -- 51
2017-10-03 12:00:00 23.8 15 Noroeste 30 Noroeste 0 -- -- 56
2017-10-03 11:00:00 22 19 Noroeste 28 Noroeste 0 -- -- 64
2017-10-03 10:00:00 18.4 12 Noroeste 20 Noroeste 0 -- -- 79
2017-10-03 09:00:00 15 13 Noroeste 21 Noroeste 0 -- -- 89
2017-10-03 08:00:00 14.4 12 Noroeste 19 Noroeste 0 -- -- 92
2017-10-03 07:00:00 14.5 10 Noroeste 16 Noroeste 0 -- -- 90
2017-10-03 06:00:00 14.9 9 Noroeste 19 Noroeste 0 -- -- 90
2017-10-03 05:00:00 15.2 12 Noroeste 19 Noroeste 0 -- -- 91
2017-10-03 04:00:00 14 5 Noroeste 11 Noroeste 0 -- -- 90
2017-10-03 03:00:00 14.2 0 Calma 10 Noroeste 0 -- -- 88
2017-10-03 02:00:00 14.5 4 Sudoeste 7 Oeste 0 -- -- 83
2017-10-03 01:00:00 16.7 8 Oeste 12 Oeste 0 -- -- 83
2017-10-03 00:00:00 17.1 8 Oeste 13 Noroeste 0 -- -- 81
2017-10-02 23:00:00 18.5 6 Noroeste 17 Noroeste 0 -- -- 74
2017-10-02 22:00:00 19.7 9 Noroeste 16 Norte 0 -- -- 72
2017-10-02 21:00:00 20.6 12 Norte 22 Norte 0 -- -- 70
2017-10-02 20:00:00 21.7 9 Norte 25 Norte 0 -- -- 68
2017-10-02 19:00:00 24.1 19 Norte 35 Noroeste 0 -- -- 58
2017-10-02 18:00:00 25.8 18 Noroeste 35 Noroeste 0 -- -- 53
2017-10-02 17:00:00 26.3 24 Noroeste 39 Noroeste 0 -- -- 53
2017-10-02 16:00:00 26.8 22 Noroeste 42 Noroeste 0 -- -- 55
2017-10-02 15:00:00 25.4 19 Noroeste 35 Noroeste 0 -- -- 59
2017-10-02 14:00:00 25 22 Noroeste 38 Noroeste 0 -- -- 60
2017-10-02 13:00:00 23.8 24 Noroeste 40 Noroeste 0 -- -- 64
2017-10-02 12:00:00 22.6 23 Noroeste 36 Noroeste 0 -- -- 67
2017-10-02 11:00:00 21.8 17 Norte 25 Noroeste 0 -- -- 71
2017-10-02 10:00:00 18.5 9 Noroeste 18 Noroeste 0 -- -- 82
2017-10-02 09:00:00 17.6 6 Noroeste 13 Noroeste 0 -- -- 86
2017-10-02 08:00:00 17.3 0 Calma 12 Noroeste 0 -- -- 85
2017-10-02 07:00:00 16.9 3 Norte 10 Noroeste 0 -- -- 87
2017-10-02 06:00:00 16.4 0 Calma 8 Oeste 0 -- -- 86
2017-10-02 05:00:00 16.2 2 Oeste 8 Oeste 0 -- -- 88
2017-10-02 04:00:00 14.9 2 Nordeste 5 Sudeste 0 -- -- 90
2017-10-02 03:00:00 14.7 3 Noroeste 9 Oeste 0 -- -- 86
2017-10-02 02:00:00 16 6 Noroeste 12 Noroeste 0 -- -- 82
2017-10-02 01:00:00 17.1 11 Noroeste 18 Noroeste 0 -- -- 81
2017-10-02 00:00:00 17.4 11 Noroeste 15 Noroeste 0 -- -- 81
2017-10-01 23:00:00 17.7 2 Norte 15 Oeste 0 -- -- 79
2017-10-01 22:00:00 19 10 Noroeste 21 Noroeste 0 -- -- 74
2017-10-01 21:00:00 19.5 9 Noroeste 25 Noroeste 0 -- -- 72
2017-10-01 20:00:00 20 11 Noroeste 24 Norte 0 -- -- 69
2017-10-01 19:00:00 21 19 Norte 31 Norte 0 -- -- 66
2017-10-01 18:00:00 21.9 18 Noroeste 35 Norte 0 -- -- 62
2017-10-01 17:00:00 22.3 19 Noroeste 40 Noroeste 0 -- -- 61
2017-10-01 16:00:00 22.4 24 Noroeste 43 Noroeste 0 -- -- 61
2017-10-01 15:00:00 21.6 19 Norte 31 Oeste 0 -- -- 62
2017-10-01 14:00:00 22 20 Noroeste 32 Norte 0 -- -- 59
2017-10-01 13:00:00 20.1 12 Norte 20 Norte 0 -- -- 67
2017-10-01 12:00:00 17.9 9 Norte 16 Noroeste 0 -- -- 76
2017-10-01 11:00:00 16.8 8 Norte 14 Norte 0 -- -- 80
2017-10-01 10:00:00 15.7 10 Norte 15 Noroeste 0 -- -- 83
2017-10-01 09:00:00 14.2 3 Noroeste 10 Noroeste 0 -- -- 88
2017-10-01 08:00:00 13.7 8 Noroeste 14 Noroeste 0 -- -- 89
2017-10-01 07:00:00 14.1 8 Noroeste 15 Noroeste 0 -- -- 87
2017-10-01 06:00:00 14 7 Noroeste 13 Noroeste 0 -- -- 88
2017-10-01 05:00:00 14.4 8 Oeste 14 Noroeste 0 -- -- 84
2017-10-01 04:00:00 14.7 9 Noroeste 18 Noroeste 0 -- -- 85
2017-10-01 03:00:00 14.6 5 Norte 16 Norte 0 -- -- 84
2017-10-01 02:00:00 14.6 4 Norte 9 Norte 0 -- -- 85
2017-10-01 01:00:00 15.3 5 Norte 13 Noroeste 0 -- -- 80
2017-10-01 00:00:00 16.6 10 Noroeste 19 Noroeste 0 -- -- 74
2017-09-30 23:00:00 17 10 Noroeste 22 Noroeste 0 -- -- 74
2017-09-30 22:00:00 17.3 12 Noroeste 18 Noroeste 0 -- -- 71
2017-09-30 21:00:00 17.9 10 Norte 25 Norte 0 -- -- 71
2017-09-30 20:00:00 18.8 11 Norte 20 Norte 0 -- -- 69
2017-09-30 19:00:00 19.9 12 Norte 19 Norte 0 -- -- 68
2017-09-30 18:00:00 20.9 10 Norte 20 Norte 0 -- -- 69
2017-09-30 17:00:00 21.4 12 Norte 27 Nordeste 0 -- -- 69
2017-09-30 16:00:00 21.3 14 Norte 24 Nordeste 0 -- -- 69
2017-09-30 15:00:00 21.5 8 Norte 17 Norte 0 -- -- 68
2017-09-30 14:00:00 20.8 8 Norte 17 Noroeste 0 -- -- 70
2017-09-30 13:00:00 19.5 9 Norte 21 Noroeste 0 -- -- 75
2017-09-30 12:00:00 18.4 13 Noroeste 24 Noroeste 0 -- -- 79
2017-09-30 11:00:00 17.5 10 Noroeste 21 Noroeste 0 -- -- 83
2017-09-30 10:00:00 16.7 9 Norte 21 Norte 0 -- -- 84
2017-09-30 09:00:00 16.1 12 Noroeste 18 Norte 0 -- -- 85
2017-09-30 08:00:00 15.8 8 Noroeste 14 Noroeste 0 -- -- 86
2017-09-30 07:00:00 15.7 8 Noroeste 15 Noroeste 0 -- -- 86
2017-09-30 06:00:00 15.5 8 Norte 14 Noroeste 0 -- -- 86
2017-09-30 05:00:00 15 6 Norte 11 Norte 0 -- -- 88
2017-09-30 04:00:00 14.4 7 Noroeste 9 Noroeste 0 -- -- 86
2017-09-30 03:00:00 15.2 5 Noroeste 9 Noroeste 0 -- -- 83
2017-09-30 02:00:00 16.9 6 Norte 14 Noroeste 0 -- -- 76
2017-09-30 01:00:00 17.9 10 Noroeste 17 Noroeste 0 -- -- 72
2017-09-30 00:00:00 18.4 11 Noroeste 18 Noroeste 0 -- -- 70
2017-09-29 23:00:00 18 9 Noroeste 13 Noroeste 0 -- -- 78
2017-09-29 22:00:00 19.8 4 Noroeste 6 Sudoeste 0 -- -- 68
2017-09-29 21:00:00 21.8 2 Sudeste 9 Sur 0 -- -- 70
2017-09-29 20:00:00 24 0 Calma 6 Norte 0 -- -- 60
2017-09-29 19:00:00 25.8 2 Norte 5 Nordeste 0 -- -- 53
2017-09-29 18:00:00 27.2 2 Nordeste 10 Este 0 -- -- 47
2017-09-29 17:00:00 26.9 5 Este 15 Nordeste 0 -- -- 47
2017-09-29 16:00:00 26.6 8 Este 18 Sudeste 0 -- -- 49
2017-09-29 15:00:00 25.7 8 Este 21 Sudeste 0 -- -- 53
2017-09-29 14:00:00 24.3 6 Este 22 Este 0 -- -- 60
2017-09-29 13:00:00 22.9 7 Este 22 Sudeste 0 -- -- 66
2017-09-29 12:00:00 21.1 6 Sudeste 21 Sudeste 0 -- -- 73
2017-09-29 11:00:00 19.2 11 Sudeste 21 Sudeste 0 -- -- 80
2017-09-29 10:00:00 16.7 0 Calma 4 Sudeste 0 -- -- 82
2017-09-29 09:00:00 11.5 0 Calma 8 Sur 0 -- -- 92
2017-09-29 08:00:00 10.7 3 Sudoeste 9 Sudoeste 0 -- -- 92
2017-09-29 07:00:00 10.6 3 Sur 6 Sudeste 0 -- -- 92
2017-09-29 06:00:00 10.8 4 Sudoeste 5 Sudoeste 0 -- -- 89
2017-09-29 05:00:00 11.2 5 Sudoeste 7 Sudoeste 0 -- -- 86
2017-09-29 04:00:00 11.5 3 Sudoeste 7 Sudoeste 0 -- -- 87
2017-09-29 03:00:00 11.8 4 Sudoeste 6 Sudoeste 0 -- -- 83
2017-09-29 02:00:00 12.3 3 Sudoeste 6 Sudoeste 0 -- -- 83
2017-09-29 01:00:00 12.9 3 Sudoeste 8 Sudoeste 0 -- -- 81
2017-09-29 00:00:00 13.9 4 Sur 8 Sur 0 -- -- 78
2017-09-28 23:00:00 15.1 4 Sudoeste 6 Sudoeste 0 -- -- 75
2017-09-28 22:00:00 16.9 3 Oeste 8 Oeste 0 -- -- 69
2017-09-28 21:00:00 19.6 2 Norte 6 Sur 0 -- -- 63
2017-09-28 20:00:00 23.8 5 Sudeste 12 Sudeste 0 -- -- 54
2017-09-28 19:00:00 26.9 6 Sur 21 Sudeste 0 -- -- 47
2017-09-28 18:00:00 27.8 11 Sudeste 22 Sudeste 0 -- -- 46
2017-09-28 17:00:00 27.5 12 Sudeste 24 Sudeste 0 -- -- 47
2017-09-28 16:00:00 27.4 12 Sudeste 25 Sudeste 0 -- -- 50
2017-09-28 15:00:00 25.8 12 Sudeste 24 Sudeste 0 -- -- 54
2017-09-28 14:00:00 24 12 Este 23 Sudeste 0 -- -- 64
2017-09-28 13:00:00 22.1 10 Sudeste 22 Sudeste 0 -- -- 68
2017-09-28 12:00:00 19.5 15 Sudeste 27 Sudeste 0 -- -- 79
2017-09-28 11:00:00 18.4 13 Sudeste 19 Sudeste 0 -- -- 85
2017-09-28 10:00:00 16.4 3 Sur 8 Sur 0 -- -- 86
2017-09-28 09:00:00 14.6 0 Calma 5 Sudeste 0 -- -- 94
2017-09-28 08:00:00 13 3 Sudoeste 5 Sudoeste 0 -- -- 94
2017-09-28 07:00:00 11.3 2 Nordeste 9 Sur 0 -- -- 94
2017-09-28 06:00:00 10.8 4 Sur 8 Sur 0 -- -- 90
2017-09-28 05:00:00 11.3 4 Sudoeste 9 Sur 0 -- -- 88
2017-09-28 04:00:00 11.9 3 Sur 6 Sur 0 -- -- 88
2017-09-28 03:00:00 12.4 2 Sudoeste 6 Sudoeste 0 -- -- 86
2017-09-28 02:00:00 13.1 4 Sudeste 8 Sudeste 0 -- -- 88
2017-09-28 01:00:00 13.7 0 Calma 4 Sudeste 0 -- -- 84
2017-09-28 00:00:00 14.6 4 Sudeste 12 Sur 0 -- -- 83
2017-09-27 23:00:00 15.4 4 Sudoeste 8 Sur 0 -- -- 76
2017-09-27 22:00:00 16.7 3 Sudoeste 7 Oeste 0 -- -- 71
2017-09-27 21:00:00 18.7 4 Oeste 5 Nordeste 0 -- -- 64
2017-09-27 20:00:00 22.1 4 Este 11 Este 0 -- -- 58
2017-09-27 19:00:00 24.6 9 Este 16 Nordeste 0 -- -- 51
2017-09-27 18:00:00 26.1 5 Este 22 Este 0 -- -- 46
2017-09-27 17:00:00 26.6 8 Sudeste 21 Sudeste 0 -- -- 47
2017-09-27 16:00:00 25.9 10 Este 22 Sudeste 0 -- -- 50
2017-09-27 15:00:00 24.7 11 Este 25 Sudeste 0 -- -- 52
2017-09-27 14:00:00 23.7 15 Sudeste 24 Sudeste 0 -- -- 56
2017-09-27 13:00:00 22.4 13 Sudeste 26 Sudeste 0 -- -- 61
2017-09-27 12:00:00 20.5 15 Sudeste 31 Sudeste 0 -- -- 68
2017-09-27 11:00:00 17.3 15 Sudeste 29 Sudeste 0 -- -- 83
2017-09-27 10:00:00 12.5 2 Noroeste 4 Nordeste 0 -- -- 91
2017-09-27 09:00:00 9.3 4 Nordeste 6 Nordeste 0 -- -- 97
2017-09-27 08:00:00 6.8 0 Calma 4 Sur 0 -- -- 91
2017-09-27 07:00:00 7.1 5 Sudoeste 6 Sudoeste 0 -- -- 91
2017-09-27 06:00:00 7.5 4 Sudeste 5 Sudeste 0 -- -- 91
2017-09-27 05:00:00 7.8 0 Calma 4 Sudoeste 0 -- -- 88
2017-09-27 04:00:00 8.3 0 Calma 3 Sudoeste 0 -- -- 85
2017-09-27 03:00:00 9.3 0 Calma 4 Sudoeste 0 -- -- 85
2017-09-27 02:00:00 10 3 Sudoeste 5 Sudoeste 0 -- -- 81
2017-09-27 01:00:00 10.8 4 Sur 7 Sur 0 -- -- 81
2017-09-27 00:00:00 12.1 4 Sudoeste 6 Sudoeste 0 -- -- 77
2017-09-26 23:00:00 13.6 4 Noroeste 9 Noroeste 0 -- -- 71
2017-09-26 22:00:00 14.9 4 Noroeste 6 Noroeste 0 -- -- 66
2017-09-26 21:00:00 17.2 0 Calma 4 Nordeste 0 -- -- 60
2017-09-26 20:00:00 21.6 2 Sudeste 8 Nordeste 0 -- -- 47
2017-09-26 19:00:00 23.1 5 Nordeste 12 Este 0 -- -- 40
2017-09-26 18:00:00 23.6 8 Este 17 Nordeste 0 -- -- 41
2017-09-26 17:00:00 24.2 5 Norte 14 Norte 0 -- -- 41
2017-09-26 16:00:00 23.8 8 Nordeste 21 Noroeste 0 -- -- 42
2017-09-26 15:00:00 23.1 11 Norte 22 Norte 0 -- -- 48
2017-09-26 14:00:00 22 10 Noroeste 22 Noroeste 0 -- -- 51
2017-09-26 13:00:00 21.2 13 Norte 24 Oeste 0 -- -- 55
2017-09-26 12:00:00 20.4 14 Noroeste 23 Norte 0 -- -- 58
2017-09-26 11:00:00 19.2 14 Noroeste 23 Noroeste 0 -- -- 63
2017-09-26 10:00:00 17.9 13 Noroeste 23 Noroeste 0 -- -- 68
2017-09-26 09:00:00 16.4 10 Noroeste 21 Noroeste 0 -- -- 76
2017-09-26 08:00:00 15.3 6 Norte 13 Norte 0 -- -- 78
2017-09-26 07:00:00 15.2 7 Norte 14 Norte 0 -- -- 78
2017-09-26 06:00:00 15.7 10 Norte 19 Noroeste 0 -- -- 76
2017-09-26 05:00:00 15.9 6 Noroeste 14 Noroeste 0 -- -- 75
2017-09-26 04:00:00 15.8 9 Noroeste 19 Noroeste 0 -- -- 74
2017-09-26 03:00:00 15.5 5 Noroeste 17 Oeste 0 -- -- 77
2017-09-26 02:00:00 15.3 8 Noroeste 19 Noroeste 0 -- -- 77
2017-09-26 01:00:00 14.4 11 Oeste 19 Noroeste 0 -- -- 80
2017-09-26 00:00:00 15 6 Noroeste 18 Norte 0 -- -- 77
2017-09-25 23:00:00 15.5 6 Noroeste 22 Noroeste 0 -- -- 77
2017-09-25 22:00:00 16.6 12 Noroeste 24 Norte 0 -- -- 72
2017-09-25 21:00:00 17.5 13 Norte 31 Norte 0 -- -- 68
2017-09-25 20:00:00 18.5 13 Norte 32 Norte 0 -- -- 64
2017-09-25 19:00:00 20 20 Norte 36 Norte 0 -- -- 61
2017-09-25 18:00:00 20.9 24 Norte 45 Norte 0 -- -- 55
2017-09-25 17:00:00 23.2 26 Norte 41 Norte 0 -- -- 46
2017-09-25 16:00:00 22.9 22 Norte 38 Norte 0 -- -- 48
2017-09-25 15:00:00 22.8 20 Noroeste 36 Noroeste 0 -- -- 49
2017-09-25 14:00:00 23 19 Noroeste 36 Noroeste 0 -- -- 50
2017-09-25 13:00:00 22.7 19 Noroeste 36 Noroeste 0 -- -- 54
2017-09-25 12:00:00 21.6 21 Noroeste 36 Noroeste 0 -- -- 59
2017-09-25 11:00:00 20.1 18 Noroeste 36 Noroeste 0 -- -- 63
2017-09-25 10:00:00 18.5 13 Noroeste 23 Noroeste 0 -- -- 68
2017-09-25 09:00:00 16.2 12 Noroeste 23 Noroeste 0 -- -- 76
2017-09-25 08:00:00 16.1 11 Noroeste 22 Noroeste 0 -- -- 79
2017-09-25 07:00:00 17 15 Noroeste 21 Oeste 0 -- -- 78
2017-09-25 06:00:00 17.4 9 Noroeste 20 Noroeste 0 -- -- 81
2017-09-25 05:00:00 18.2 14 Noroeste 28 Noroeste 0 -- -- 80
2017-09-25 04:00:00 18.3 14 Noroeste 27 Noroeste 0 -- -- 78
2017-09-25 03:00:00 17.2 14 Noroeste 25 Noroeste 0 -- -- 74
2017-09-25 02:00:00 16.2 12 Noroeste 20 Noroeste 0 -- -- 87
2017-09-25 01:00:00 15.9 5 Este 8 Nordeste 0 -- -- 86
2017-09-25 00:00:00 17.4 2 Este 12 Sur 0 -- -- 77
2017-09-24 23:00:00 18 9 Sur 13 Sur 0 -- -- 74
2017-09-24 22:00:00 18.5 10 Sur 12 Sur 0 -- -- 72
2017-09-24 21:00:00 21.1 4 Sudoeste 6 Sudoeste 0 -- -- 61
2017-09-24 20:00:00 25.3 2 Sudoeste 6 Sudoeste 0 -- -- 52
2017-09-24 19:00:00 28 2 Sudeste 5 Sudeste 0 -- -- 46
2017-09-24 18:00:00 27.7 3 Noroeste 10 Este 0 -- -- 44
2017-09-24 17:00:00 27.8 4 Este 13 Este 0 -- -- 45
2017-09-24 16:00:00 26.9 6 Nordeste 14 Nordeste 0 -- -- 48
2017-09-24 15:00:00 26.3 6 Este 17 Este 0 -- -- 49
2017-09-24 14:00:00 24.4 5 Este 18 Este 0 -- -- 56
2017-09-24 13:00:00 22.8 5 Este 14 Este 0 -- -- 60
2017-09-24 12:00:00 20.6 5 Este 10 Este 0 -- -- 68
2017-09-24 11:00:00 18.1 4 Norte 9 Norte 0 -- -- 80
2017-09-24 10:00:00 15.3 0 Calma 5 Oeste 0 -- -- 88
2017-09-24 09:00:00 10.3 0 Calma 4 Sudoeste 0 -- -- 95
2017-09-24 08:00:00 9.7 2 Este 4 Sudoeste 0 -- -- 94
2017-09-24 07:00:00 10.1 3 Sudoeste 5 Sudeste 0 -- -- 94
2017-09-24 06:00:00 10.1 2 Sudoeste 7 Sudoeste 0 -- -- 92
2017-09-24 05:00:00 10.4 5 Sudoeste 7 Sudoeste 0 -- -- 89
2017-09-24 04:00:00 10.9 0 Calma 4 Sudoeste 0 -- -- 89
2017-09-24 03:00:00 11.7 0 Calma 3 Sudoeste 0 -- -- 90
2017-09-24 02:00:00 12.3 2 Sur 4 Sudoeste 0 -- -- 84
2017-09-24 01:00:00 13.3 4 Sudoeste 6 Sudoeste 0 -- -- 81
2017-09-24 00:00:00 14.5 4 Sudoeste 6 Nordeste 0 -- -- 79
2017-09-23 23:00:00 15.7 5 Sudeste 8 Sur 0 -- -- 80
2017-09-23 22:00:00 17.1 6 Sudoeste 7 Sudoeste 0 -- -- 72
2017-09-23 21:00:00 19.6 4 Sudoeste 5 Sudoeste 0 -- -- 68
2017-09-23 20:00:00 22.9 3 Este 9 Nordeste 0 -- -- 60
2017-09-23 19:00:00 24.5 6 Este 12 Este 0 -- -- 54
2017-09-23 18:00:00 25.4 6 Este 17 Sudeste 0 -- -- 50
2017-09-23 17:00:00 25.3 12 Este 18 Este 0 -- -- 50
2017-09-23 16:00:00 25.3 9 Sudeste 23 Sudeste 0 -- -- 54
2017-09-23 15:00:00 24.1 12 Sudeste 25 Este 0 -- -- 58
2017-09-23 14:00:00 23.3 14 Sudeste 25 Sudeste 0 -- -- 63
2017-09-23 13:00:00 22.2 18 Sudeste 30 Sudeste 0 -- -- 67
2017-09-23 12:00:00 20 12 Sudeste 20 Sudeste 0 -- -- 76
2017-09-23 11:00:00 16.1 12 Sudeste 24 Sudeste 0 -- -- 94
2017-09-23 10:00:00 14.1 2 Sudeste 8 Este 0 -- -- 99
2017-09-23 09:00:00 11 4 Sudeste 5 Sudeste 0 -- -- 98
2017-09-23 08:00:00 10.7 3 Oeste 5 Este 0 -- -- 98
2017-09-23 07:00:00 10.9 5 Este 6 Nordeste 0 -- -- 97
2017-09-23 06:00:00 11.9 0 Calma 5 Nordeste 0 -- -- 97
2017-09-23 05:00:00 12.3 0 Calma 6 Nordeste 0 -- -- 98
2017-09-23 04:00:00 11.9 2 Este 7 Nordeste 0 -- -- 98
2017-09-23 03:00:00 11.9 3 Nordeste 4 Nordeste 0 -- -- 96
2017-09-23 02:00:00 11 2 Este 5 Sur 0 -- -- 92
2017-09-23 01:00:00 11.6 3 Sudeste 8 Este 0 -- -- 93
2017-09-23 00:00:00 12.4 5 Sur 8 Sur 0 -- -- 90
2017-09-22 23:00:00 13 4 Sur 6 Sur 0 -- -- 88
2017-09-22 22:00:00 14 6 Sudoeste 7 Sudoeste 0.2 -- -- 79
2017-09-22 21:00:00 16.1 3 Sudoeste 6 Sur 0 -- -- 75
2017-09-22 20:00:00 18.6 3 Sudeste 9 Este 0 -- -- 71
2017-09-22 19:00:00 19.1 7 Este 17 Este 0 -- -- 71
2017-09-22 18:00:00 19.8 10 Este 18 Nordeste 0 -- -- 64
2017-09-22 17:00:00 20.1 12 Este 19 Este 0 -- -- 69
2017-09-22 16:00:00 19.6 8 Este 13 Este 0 -- -- 69
2017-09-22 15:00:00 18.6 6 Nordeste 13 Nordeste 0 -- -- 74
2017-09-22 14:00:00 18.1 8 Nordeste 14 Nordeste 0 -- -- 75
2017-09-22 13:00:00 17.4 2 Nordeste 11 Oeste 0 -- -- 74
2017-09-22 12:00:00 15.4 6 Oeste 14 Noroeste 0 -- -- 85
2017-09-22 11:00:00 14.7 2 Norte 15 Nordeste 0 -- -- 93
2017-09-22 10:00:00 14.4 4 Norte 14 Nordeste 0 -- -- 93
2017-09-22 09:00:00 15.8 4 Norte 15 Norte 0 -- -- 77
2017-09-22 08:00:00 16.1 8 Norte 15 Norte 0 -- -- 73
2017-09-22 07:00:00 16 9 Norte 20 Noroeste 0 -- -- 82
2017-09-22 06:00:00 15.9 7 Noroeste 17 Noroeste 0 -- -- 81
2017-09-22 05:00:00 15.9 11 Noroeste 21 Noroeste 0 -- -- 79
2017-09-22 04:00:00 15.5 8 Noroeste 15 Noroeste 0 -- -- 79
2017-09-22 03:00:00 16 10 Noroeste 19 Norte 0 -- -- 77
2017-09-22 02:00:00 16.3 11 Noroeste 23 Noroeste 0 -- -- 74
2017-09-22 01:00:00 16.6 10 Noroeste 22 Noroeste 0 -- -- 73
2017-09-22 00:00:00 17 12 Noroeste 26 Noroeste 0 -- -- 72
2017-09-21 23:00:00 18 14 Noroeste 30 Noroeste 0 -- -- 67
2017-09-21 22:00:00 19.2 16 Noroeste 30 Norte 0 -- -- 60
2017-09-21 21:00:00 20.5 19 Norte 30 Norte 0 -- -- 58
2017-09-21 20:00:00 22.4 8 Noroeste 10 Noroeste 0 -- -- 47
2017-09-21 19:00:00 25.6 6 Oeste 8 Oeste 0 -- -- 44
2017-09-21 18:00:00 26.6 6 Oeste 13 Oeste 0 -- -- 37
2017-09-21 17:00:00 26.4 4 Nordeste 15 Sudeste 0 -- -- 39
2017-09-21 16:00:00 25.4 5 Este 13 Este 0 -- -- 38
2017-09-21 15:00:00 24.2 6 Sudeste 16 Sudeste 0 -- -- 42
2017-09-21 14:00:00 22.9 9 Sudeste 15 Sudeste 0 -- -- 48
2017-09-21 13:00:00 21 6 Este 18 Este 0 -- -- 55
2017-09-21 12:00:00 17.9 4 Sudeste 9 Nordeste 0 -- -- 57
2017-09-21 11:00:00 15 2 Norte 5 Nordeste 0 -- -- 57
2017-09-21 10:00:00 11.6 3 Nordeste 4 Nordeste 0 -- -- 72
2017-09-21 09:00:00 6.2 0 Calma 4 Sudoeste 0 -- -- 89
2017-09-21 08:00:00 4.8 0 Calma 5 Sudoeste 0 -- -- 88
2017-09-21 07:00:00 5.1 3 Sudoeste 5 Sudoeste 0 -- -- 85
2017-09-21 06:00:00 5.7 0 Calma 4 Sur 0 -- -- 84
2017-09-21 05:00:00 6.4 0 Calma 4 Oeste 0 -- -- 79
2017-09-21 04:00:00 7.3 2 Oeste 4 Oeste 0 -- -- 73
2017-09-21 03:00:00 8.3 0 Calma 6 Oeste 0 -- -- 75
2017-09-21 02:00:00 9.8 2 Sur 9 Sur 0 -- -- 65
2017-09-21 01:00:00 10.3 5 Sudeste 8 Sudeste 0 -- -- 67
2017-09-21 00:00:00 10.9 4 Este 6 Este 0 -- -- 63
2017-09-20 23:00:00 12.3 4 Sudeste 9 Sudeste 0 -- -- 60
2017-09-20 22:00:00 14.2 6 Sur 10 Sudoeste 0 -- -- 52
2017-09-20 21:00:00 17.3 5 Sudoeste 12 Sur 0 -- -- 51
2017-09-20 20:00:00 23.3 5 Sudoeste 7 Sur 0 -- -- 37
2017-09-20 19:00:00 25.7 4 Sur 7 Sudeste 0 -- -- 24
2017-09-20 18:00:00 26.1 5 Sudeste 11 Este 0 -- -- 22
2017-09-20 17:00:00 25.5 4 Nordeste 9 Este 0 -- -- 20
2017-09-20 16:00:00 24.9 2 Este 10 Este 0 -- -- 25
2017-09-20 15:00:00 23.4 2 Nordeste 12 Nordeste 0 -- -- 26
2017-09-20 14:00:00 21.8 3 Este 12 Este 0 -- -- 32
2017-09-20 13:00:00 19.4 6 Nordeste 12 Norte 0 -- -- 38
2017-09-20 12:00:00 16.8 4 Noroeste 11 Noroeste 0 -- -- 48
2017-09-20 11:00:00 13.6 5 Noroeste 12 Noroeste 0 -- -- 64
2017-09-20 10:00:00 10.5 8 Noroeste 14 Noroeste 0 -- -- 79
2017-09-20 09:00:00 6.4 2 Noroeste 6 Noroeste 0.2 -- -- 96
2017-09-20 08:00:00 5 0 Calma 9 Oeste 0 -- -- 89
2017-09-20 07:00:00 6.1 5 Oeste 9 Sudoeste 0 -- -- 92
2017-09-20 06:00:00 6.3 6 Oeste 10 Oeste 0 -- -- 91
2017-09-20 05:00:00 7.9 3 Sudoeste 16 Noroeste 0 -- -- 90
2017-09-20 04:00:00 7.5 5 Noroeste 9 Noroeste 0 -- -- 88
2017-09-20 03:00:00 8.3 5 Oeste 13 Sudoeste 0 -- -- 84
2017-09-20 02:00:00 9.9 6 Noroeste 14 Noroeste 0 -- -- 85
2017-09-20 01:00:00 11 13 Oeste 19 Noroeste 0 -- -- 79
2017-09-20 00:00:00 11.4 10 Noroeste 14 Noroeste 0 -- -- 78